createdAt,value
2023-04-15T00:01:00.013Z,4.80
2023-04-15T00:03:29.016Z,5.50
2023-04-15T00:05:58.645Z,4.60
2023-04-15T00:08:27.408Z,5.50
2023-04-15T00:10:55.767Z,9.90
2023-04-15T00:13:24.306Z,7.70
2023-04-15T00:15:52.945Z,8.40
2023-04-15T00:18:21.343Z,9.30
2023-04-15T00:20:49.669Z,7.40
2023-04-15T00:23:18.294Z,8.60
2023-04-15T00:25:47.611Z,5.70
2023-04-15T00:28:16.107Z,6.20
2023-04-15T00:30:45.468Z,9.20
2023-04-15T00:33:14.991Z,9.00
2023-04-15T00:35:43.522Z,6.30
2023-04-15T00:38:12.459Z,6.50
2023-04-15T00:40:41.560Z,8.10
2023-04-15T00:43:10.319Z,6.50
2023-04-15T00:45:39.640Z,7.70
2023-04-15T00:48:09.726Z,6.10
2023-04-15T00:50:38.261Z,7.00
2023-04-15T00:53:06.664Z,5.60
2023-04-15T00:55:36.358Z,8.60
2023-04-15T00:58:05.044Z,6.30
2023-04-15T01:00:33.527Z,9.10
2023-04-15T01:03:02.169Z,9.00
2023-04-15T01:05:31.532Z,6.40
2023-04-15T01:08:00.185Z,6.80
2023-04-15T01:10:28.738Z,5.80
2023-04-15T01:12:57.530Z,7.70
2023-04-15T01:15:27.718Z,11.70
2023-04-15T01:17:58.089Z,9.20
2023-04-15T01:20:27.679Z,8.00
2023-04-15T01:22:56.356Z,7.00
2023-04-15T01:25:33.362Z,7.90
2023-04-15T01:28:02.381Z,9.40
2023-04-15T01:30:35.068Z,8.90
2023-04-15T01:33:03.636Z,16.30
2023-04-15T01:35:32.437Z,12.60
2023-04-15T01:38:08.619Z,22.80
2023-04-15T01:40:37.317Z,34.80
2023-04-15T01:43:05.551Z,20.50
2023-04-15T01:45:33.964Z,15.40
2023-04-15T01:48:06.053Z,43.10
2023-04-15T01:50:34.514Z,25.70
2023-04-15T01:53:03.046Z,12.70
2023-04-15T01:55:31.958Z,8.50
2023-04-15T01:58:00.523Z,12.90
2023-04-15T02:00:29.146Z,30.40
2023-04-15T02:02:57.867Z,29.90
2023-04-15T02:05:27.983Z,9.40
2023-04-15T02:07:56.561Z,17.70
2023-04-15T02:10:25.283Z,38.30
2023-04-15T02:12:54.631Z,23.40
2023-04-15T02:15:23.401Z,15.30
2023-04-15T02:17:55.613Z,13.40
2023-04-15T02:20:24.199Z,9.00
2023-04-15T02:22:52.778Z,9.90
2023-04-15T02:25:21.170Z,9.00
2023-04-15T02:27:49.641Z,7.50
2023-04-15T02:30:18.844Z,7.50
2023-04-15T02:32:47.738Z,9.90
2023-04-15T02:35:16.096Z,12.10
2023-04-15T02:37:46.010Z,7.30
2023-04-15T02:40:14.694Z,13.20
2023-04-15T02:42:44.417Z,9.30
2023-04-15T02:47:44.666Z,8.00
2023-04-15T02:50:13.758Z,9.30
2023-04-15T02:52:43.612Z,7.70
2023-04-15T02:55:12.853Z,11.90
2023-04-15T02:57:41.652Z,6.60
2023-04-15T03:00:12.083Z,11.40
2023-04-15T03:02:47.506Z,9.60
2023-04-15T03:05:16.413Z,7.90
2023-04-15T03:07:51.354Z,6.80
2023-04-15T03:10:20.977Z,6.80
2023-04-15T03:12:49.747Z,5.70
2023-04-15T03:15:19.992Z,9.10
2023-04-15T03:17:51.264Z,10.40
2023-04-15T03:20:19.944Z,8.40
2023-04-15T03:22:49.782Z,5.40
2023-04-15T03:25:18.492Z,7.50
2023-04-15T03:27:46.975Z,7.50
2023-04-15T03:30:16.786Z,7.90
2023-04-15T03:32:45.283Z,4.50
2023-04-15T03:35:14.613Z,5.50
2023-04-15T03:37:43.090Z,8.60
2023-04-15T03:40:12.219Z,7.70
2023-04-15T03:42:40.865Z,7.60
2023-04-15T03:45:09.551Z,6.70
2023-04-15T03:47:37.949Z,8.00
2023-04-15T03:50:07.504Z,5.10
2023-04-15T03:52:36.068Z,7.40
2023-04-15T03:55:04.822Z,8.80
2023-04-15T03:57:38.185Z,5.60
2023-04-15T04:00:07.528Z,7.70
2023-04-15T04:02:40.531Z,5.80
2023-04-15T04:05:09.649Z,3.60
2023-04-15T04:07:37.940Z,4.70
2023-04-15T04:10:07.434Z,12.10
2023-04-15T04:12:36.147Z,5.80
2023-04-15T04:15:05.268Z,4.40
2023-04-15T04:17:34.094Z,8.50
2023-04-15T04:20:02.724Z,10.30
2023-04-15T04:22:31.239Z,7.80
2023-04-15T04:25:00.696Z,10.00
2023-04-15T04:27:29.301Z,4.90
2023-04-15T04:29:57.673Z,11.70
2023-04-15T04:32:26.384Z,16.70
2023-04-15T04:34:55.058Z,11.90
2023-04-15T04:37:23.846Z,13.40
2023-04-15T04:39:52.321Z,7.90
2023-04-15T04:42:21.027Z,9.90
2023-04-15T04:44:49.411Z,9.40
2023-04-15T04:47:17.884Z,11.30
2023-04-15T04:49:46.416Z,8.80
2023-04-15T04:52:14.973Z,6.30
2023-04-15T04:54:43.632Z,10.60
2023-04-15T04:57:13.902Z,8.70
2023-04-15T04:59:42.322Z,9.10
2023-04-15T05:02:11.094Z,9.90
2023-04-15T05:04:39.594Z,10.90
2023-04-15T05:07:08.618Z,7.40
2023-04-15T05:09:37.374Z,11.70
2023-04-15T05:12:06.302Z,8.90
2023-04-15T05:14:35.029Z,7.80
2023-04-15T05:17:03.630Z,7.50
2023-04-15T05:19:32.088Z,6.60
2023-04-15T05:22:01.080Z,5.70
2023-04-15T05:24:29.742Z,5.60
2023-04-15T05:26:58.160Z,7.20
2023-04-15T05:29:26.716Z,7.40
2023-04-15T05:31:55.099Z,6.00
2023-04-15T05:34:23.599Z,4.50
2023-04-15T05:36:52.735Z,6.50
2023-04-15T05:39:21.589Z,8.20
2023-04-15T05:41:49.950Z,12.10
2023-04-15T05:44:18.672Z,6.00
2023-04-15T05:46:47.344Z,6.70
2023-04-15T05:49:15.733Z,5.10
2023-04-15T05:51:44.503Z,9.10
2023-04-15T05:54:12.838Z,10.00
2023-04-15T05:56:41.333Z,6.90
2023-04-15T05:59:09.858Z,7.90
2023-04-15T06:01:38.540Z,13.20
2023-04-15T06:04:07.097Z,6.90
2023-04-15T06:06:35.554Z,11.80
2023-04-15T06:09:04.917Z,12.60
2023-04-15T06:11:33.485Z,7.60
2023-04-15T06:14:01.825Z,6.90
2023-04-15T06:16:30.246Z,13.10
2023-04-15T06:18:58.837Z,6.80
2023-04-15T06:21:27.425Z,13.20
2023-04-15T06:23:56.799Z,10.80
2023-04-15T06:26:25.211Z,8.90
2023-04-15T06:28:53.721Z,11.30
2023-04-15T06:31:22.479Z,14.20
2023-04-15T06:33:50.893Z,16.00
2023-04-15T06:36:19.756Z,7.60
2023-04-15T06:38:48.319Z,8.20
2023-04-15T06:41:16.857Z,8.20
2023-04-15T06:43:45.656Z,10.50
2023-04-15T06:46:14.865Z,8.10
2023-04-15T06:48:43.316Z,7.60
2023-04-15T06:51:12.008Z,6.90
2023-04-15T06:53:42.148Z,6.40
2023-04-15T06:56:11.114Z,7.90
2023-04-15T06:58:39.630Z,9.30
2023-04-15T07:01:08.177Z,7.70
2023-04-15T07:03:36.807Z,7.10
2023-04-15T07:06:07.049Z,7.60
2023-04-15T07:08:35.508Z,5.90
2023-04-15T07:11:03.869Z,9.70
2023-04-15T07:13:32.931Z,5.50
2023-04-15T07:16:01.499Z,10.50
2023-04-15T07:18:29.873Z,4.60
2023-04-15T07:20:58.695Z,4.20
2023-04-15T07:23:27.751Z,7.50
2023-04-15T07:25:57.140Z,7.90
2023-04-15T07:28:25.818Z,6.90
2023-04-15T07:30:54.157Z,4.20
2023-04-15T07:33:23.117Z,5.40
2023-04-15T07:35:51.582Z,3.60
2023-04-15T07:38:20.052Z,5.00
2023-04-15T07:40:48.632Z,8.20
2023-04-15T07:43:17.316Z,4.60
2023-04-15T07:45:45.655Z,5.20
2023-04-15T07:48:14.200Z,5.20
2023-04-15T07:50:43.088Z,5.10
2023-04-15T07:53:11.547Z,16.00
2023-04-15T07:55:40.024Z,5.00
2023-04-15T07:58:08.553Z,5.90
2023-04-15T08:00:38.625Z,6.00
2023-04-15T08:03:08.034Z,5.60
2023-04-15T08:05:36.596Z,5.90
2023-04-15T08:08:05.140Z,6.20
2023-04-15T08:10:33.600Z,4.30
2023-04-15T08:13:02.058Z,5.70
2023-04-15T08:15:31.598Z,5.30
2023-04-15T08:18:01.346Z,8.40
2023-04-15T08:20:30.205Z,4.70
2023-04-15T08:22:58.676Z,6.50
2023-04-15T08:25:27.550Z,6.40
2023-04-15T08:27:58.264Z,5.20
2023-04-15T08:30:26.856Z,4.40
2023-04-15T08:32:55.432Z,5.70
2023-04-15T08:35:24.021Z,5.60
2023-04-15T08:37:52.399Z,5.20
2023-04-15T08:40:23.684Z,6.20
2023-04-15T08:42:55.002Z,5.40
2023-04-15T08:47:56.635Z,6.40
2023-04-15T08:50:26.568Z,6.30
2023-04-15T08:52:56.616Z,5.70
2023-04-15T08:55:30.519Z,6.40
2023-04-15T08:57:59.213Z,4.90
2023-04-15T09:00:27.921Z,7.50
2023-04-15T09:02:57.340Z,7.60
2023-04-15T09:05:25.900Z,5.60
2023-04-15T09:07:54.353Z,4.00
2023-04-15T09:10:22.825Z,5.60
2023-04-15T09:12:51.343Z,6.30
2023-04-15T09:15:20.445Z,6.60
2023-04-15T09:17:49.234Z,7.50
2023-04-15T09:20:21.180Z,5.40
2023-04-15T09:22:50.472Z,6.60
2023-04-15T09:25:25.031Z,3.00
2023-04-15T09:27:59.383Z,9.20
2023-04-15T09:30:30.813Z,5.80
2023-04-15T09:33:02.677Z,5.60
2023-04-15T09:35:31.235Z,3.90
2023-04-15T09:38:05.515Z,3.90
2023-04-15T09:40:43.202Z,4.60
2023-04-15T09:43:14.746Z,29.30
2023-04-15T09:46:32.332Z,8.90
2023-04-15T09:49:11.307Z,5.60
2023-04-15T09:51:40.054Z,4.30
2023-04-15T09:54:08.421Z,6.50
2023-04-15T09:56:39.090Z,4.50
2023-04-15T09:59:08.774Z,5.00
2023-04-15T10:01:37.399Z,5.30
2023-04-15T10:04:07.041Z,4.30
2023-04-15T10:06:36.504Z,5.10
2023-04-15T10:09:06.753Z,7.70
2023-04-15T10:11:35.928Z,5.50
2023-04-15T10:14:05.354Z,7.30
2023-04-15T10:16:36.167Z,5.60
2023-04-15T10:19:07.527Z,6.80
2023-04-15T10:21:38.017Z,6.40
2023-04-15T10:24:07.270Z,6.30
2023-04-15T10:26:35.889Z,6.10
2023-04-15T10:29:05.085Z,5.70
2023-04-15T10:31:34.146Z,3.30
2023-04-15T10:34:06.735Z,4.90
2023-04-15T10:36:35.472Z,5.80
2023-04-15T10:39:43.496Z,6.40
2023-04-15T10:42:16.880Z,9.60
2023-04-15T10:44:48.964Z,6.80
2023-04-15T10:47:20.530Z,15.30
2023-04-15T10:49:50.640Z,8.30
2023-04-15T10:52:27.785Z,6.80
2023-04-15T10:55:26.605Z,7.50
2023-04-15T10:58:01.172Z,7.50
2023-04-15T11:00:31.948Z,8.60
2023-04-15T11:03:10.283Z,8.30
2023-04-15T11:05:41.911Z,8.30
2023-04-15T11:08:12.084Z,6.70
2023-04-15T11:10:40.556Z,8.80
2023-04-15T11:13:11.821Z,7.50
2023-04-15T11:18:30.933Z,7.30
2023-04-15T11:21:59.224Z,6.60
2023-04-15T11:24:27.814Z,7.80
2023-04-15T11:26:59.961Z,10.80
2023-04-15T11:29:34.655Z,10.90
2023-04-15T11:32:10.193Z,9.70
2023-04-15T11:34:38.836Z,8.60
2023-04-15T11:37:08.135Z,7.80
2023-04-15T11:39:37.759Z,6.10
2023-04-15T11:42:17.489Z,7.20
2023-04-15T11:44:46.080Z,8.60
2023-04-15T11:47:24.746Z,5.30
2023-04-15T11:50:19.850Z,6.50
2023-04-15T11:52:58.229Z,4.40
2023-04-15T11:55:26.728Z,5.50
2023-04-15T11:58:15.083Z,7.60
2023-04-15T12:00:50.500Z,4.60
2023-04-15T12:03:30.609Z,5.30
2023-04-15T12:06:21.238Z,7.80
2023-04-15T12:08:56.282Z,5.90
2023-04-15T12:11:27.649Z,6.10
2023-04-15T12:14:05.503Z,5.20
2023-04-15T12:16:48.008Z,5.50
2023-04-15T12:19:24.629Z,5.70
2023-04-15T12:22:00.050Z,5.50
2023-04-15T12:24:32.299Z,6.20
2023-04-15T12:27:05.872Z,5.10
2023-04-15T12:29:36.321Z,4.90
2023-04-15T12:32:10.522Z,8.50
2023-04-15T12:34:40.558Z,4.10
2023-04-15T12:37:11.034Z,5.90
2023-04-15T12:39:42.160Z,5.20
2023-04-15T12:42:11.839Z,6.30
2023-04-15T12:44:40.764Z,5.00
2023-04-15T12:47:10.419Z,5.20
2023-04-15T12:49:39.865Z,4.00
2023-04-15T12:52:08.528Z,5.40
2023-04-15T12:54:37.014Z,7.50
2023-04-15T12:57:07.283Z,6.00
2023-04-15T12:59:36.673Z,4.90
2023-04-15T13:02:05.642Z,10.00
2023-04-15T13:04:34.204Z,8.60
2023-04-15T13:08:02.418Z,11.60
2023-04-15T13:10:31.721Z,3.80
2023-04-15T13:13:00.271Z,6.30
2023-04-15T13:15:29.109Z,4.30
2023-04-15T13:17:57.688Z,3.30
2023-04-15T13:20:27.200Z,2.80
2023-04-15T13:22:55.935Z,7.20
2023-04-15T13:25:24.718Z,7.30
2023-04-15T13:27:53.010Z,6.50
2023-04-15T13:30:21.602Z,4.20
2023-04-15T13:32:51.401Z,7.80
2023-04-15T13:35:21.315Z,3.90
2023-04-15T13:37:49.923Z,5.30
2023-04-15T13:40:20.230Z,4.30
2023-04-15T13:42:48.910Z,4.10
2023-04-15T13:45:17.384Z,3.20
2023-04-15T13:47:46.107Z,4.40
2023-04-15T13:50:14.456Z,5.00
2023-04-15T13:52:42.766Z,4.10
2023-04-15T13:55:20.418Z,3.90
2023-04-15T13:58:38.350Z,5.80
2023-04-15T14:01:07.543Z,3.10
2023-04-15T14:03:36.982Z,5.30
2023-04-15T14:06:06.582Z,16.20
2023-04-15T14:08:35.215Z,5.70
2023-04-15T14:11:03.765Z,8.00
2023-04-15T14:13:32.406Z,3.20
2023-04-15T14:16:01.100Z,4.40
2023-04-15T14:18:30.608Z,4.50
2023-04-15T14:20:59.200Z,2.40
2023-04-15T14:23:27.654Z,5.10
2023-04-15T14:25:56.269Z,6.60
2023-04-15T14:28:25.106Z,5.20
2023-04-15T14:30:53.633Z,4.60
2023-04-15T14:33:22.189Z,4.10
2023-04-15T14:35:51.498Z,4.10
2023-04-15T14:38:20.154Z,7.20
2023-04-15T14:40:48.655Z,6.40
2023-04-15T14:43:17.294Z,4.80
2023-04-15T14:45:45.798Z,4.20
2023-04-15T14:48:14.292Z,5.40
2023-04-15T14:50:42.971Z,2.70
2023-04-15T14:53:11.268Z,3.30
2023-04-15T14:55:39.769Z,3.60
2023-04-15T14:58:10.932Z,3.20
2023-04-15T15:00:42.100Z,3.30
2023-04-15T15:03:15.063Z,3.30
2023-04-15T15:05:46.490Z,2.50
2023-04-15T15:08:14.932Z,8.80
2023-04-15T15:10:49.167Z,3.30
2023-04-15T15:13:19.487Z,5.50
2023-04-15T15:15:49.816Z,6.70
2023-04-15T15:18:19.404Z,4.10
2023-04-15T15:20:48.409Z,5.30
2023-04-15T15:23:16.969Z,3.30
2023-04-15T15:25:47.102Z,3.40
2023-04-15T15:28:15.798Z,3.10
2023-04-15T15:30:44.124Z,4.90
2023-04-15T15:33:12.589Z,6.70
2023-04-15T15:35:41.268Z,3.30
2023-04-15T15:38:12.250Z,3.90
2023-04-15T15:40:40.804Z,6.70
2023-04-15T15:43:09.327Z,4.10
2023-04-15T15:45:37.712Z,5.00
2023-04-15T15:48:06.620Z,4.30
2023-04-15T15:50:35.254Z,5.10
2023-04-15T15:53:03.721Z,5.00
2023-04-15T15:55:32.035Z,4.70
2023-04-15T15:58:00.417Z,4.70
2023-04-15T16:00:29.068Z,3.00
2023-04-15T16:05:29.830Z,9.30
2023-04-15T16:07:58.110Z,3.10
2023-04-15T16:10:26.599Z,8.00
2023-04-15T16:12:55.722Z,8.90
2023-04-15T16:15:26.290Z,6.00
2023-04-15T16:17:54.689Z,7.10
2023-04-15T16:20:23.570Z,4.40
2023-04-15T16:22:52.016Z,7.20
2023-04-15T16:25:20.502Z,8.20
2023-04-15T16:28:27.178Z,5.10
2023-04-15T16:34:51.184Z,8.70
2023-04-15T16:37:20.986Z,4.30
2023-04-15T16:40:49.210Z,4.70
2023-04-15T16:44:17.479Z,5.50
2023-04-15T16:47:50.904Z,4.90
2023-04-15T16:50:19.410Z,5.40
2023-04-15T16:52:47.793Z,4.90
2023-04-15T16:55:16.475Z,11.70
2023-04-15T16:58:00.439Z,12.00
2023-04-15T17:00:32.270Z,10.30
2023-04-15T17:03:01.268Z,6.50
2023-04-15T17:05:31.308Z,5.50
2023-04-15T17:07:59.817Z,5.60
2023-04-15T17:10:28.642Z,11.60
2023-04-15T17:12:58.388Z,8.00
2023-04-15T17:15:27.471Z,9.50
2023-04-15T17:17:56.266Z,9.40
2023-04-15T17:20:26.674Z,10.90
2023-04-15T17:22:55.169Z,26.20
2023-04-15T17:25:23.863Z,23.50
2023-04-15T17:28:20.651Z,56.40
2023-04-15T17:30:49.538Z,35.20
2023-04-15T17:33:56.100Z,27.60
2023-04-15T17:36:06.347Z,16.70
2023-04-15T17:38:34.830Z,18.70
2023-04-15T17:41:03.231Z,20.40
2023-04-15T17:43:32.216Z,22.20
2023-04-15T17:46:00.904Z,19.60
2023-04-15T17:48:29.362Z,20.80
2023-04-15T17:50:57.876Z,27.30
2023-04-15T17:53:26.546Z,22.20
2023-04-15T17:55:55.865Z,17.20
2023-04-15T17:58:24.229Z,21.40
2023-04-15T18:00:52.657Z,22.70
2023-04-15T18:03:22.163Z,29.30
2023-04-15T18:05:50.794Z,17.40
2023-04-15T18:08:19.273Z,18.00
2023-04-15T18:10:47.845Z,24.50
2023-04-15T18:13:16.384Z,26.40
2023-04-15T18:15:46.911Z,30.70
2023-04-15T18:18:16.078Z,41.70
2023-04-15T18:20:44.557Z,33.50
2023-04-15T18:23:14.615Z,31.60
2023-04-15T18:25:43.921Z,30.10
2023-04-15T18:28:12.414Z,28.10
2023-04-15T18:30:40.955Z,26.40
2023-04-15T18:33:09.496Z,25.30
2023-04-15T18:35:37.929Z,23.30
2023-04-15T18:38:06.302Z,25.20
2023-04-15T18:40:36.140Z,29.80
2023-04-15T18:43:04.556Z,36.90
2023-04-15T18:45:33.031Z,25.70
2023-04-15T18:48:02.706Z,19.30
2023-04-15T18:50:31.269Z,16.50
2023-04-15T18:52:59.838Z,18.00
2023-04-15T18:55:28.236Z,17.30
2023-04-15T18:57:56.875Z,20.40
2023-04-15T19:00:41.707Z,18.30
2023-04-15T19:03:11.463Z,18.30
2023-04-15T19:05:40.287Z,15.00
2023-04-15T19:08:08.984Z,15.10
2023-04-15T19:10:37.803Z,17.10
2023-04-15T19:13:06.592Z,17.90
2023-04-15T19:15:35.017Z,14.90
2023-04-15T19:18:05.458Z,17.80
2023-04-15T19:20:37.179Z,34.90
2023-04-15T19:23:06.957Z,20.60
2023-04-15T19:25:35.535Z,19.50
2023-04-15T19:28:04.116Z,18.70
2023-04-15T19:30:33.156Z,24.80
2023-04-15T19:33:01.596Z,21.60
2023-04-15T19:35:30.053Z,17.50
2023-04-15T19:37:58.680Z,20.40
2023-04-15T19:40:27.177Z,21.70
2023-04-15T19:42:55.598Z,16.80
2023-04-15T19:45:24.136Z,16.60
2023-04-15T19:47:53.773Z,17.50
2023-04-15T19:50:26.130Z,20.40
2023-04-15T19:52:54.564Z,18.10
2023-04-15T19:55:22.969Z,16.00
2023-04-15T19:57:51.462Z,11.80
2023-04-15T20:00:20.071Z,13.60
2023-04-15T20:02:48.788Z,8.70
2023-04-15T20:05:17.443Z,9.20
2023-04-15T20:07:48.530Z,8.70
2023-04-15T20:10:16.880Z,13.70
2023-04-15T20:12:49.665Z,8.50
2023-04-15T20:15:23.887Z,8.80
2023-04-15T20:17:52.617Z,10.30
2023-04-15T20:20:21.593Z,13.70
2023-04-15T20:22:50.008Z,12.50
2023-04-15T20:25:18.567Z,11.40
2023-04-15T20:27:46.969Z,8.60
2023-04-15T20:30:15.776Z,12.90
2023-04-15T20:32:44.357Z,11.20
2023-04-15T20:35:13.103Z,10.70
2023-04-15T20:37:44.082Z,8.20
2023-04-15T20:40:12.527Z,9.90
2023-04-15T20:42:43.271Z,10.10
2023-04-15T20:45:11.899Z,10.20
2023-04-15T20:47:40.336Z,7.60
2023-04-15T20:50:09.465Z,9.30
2023-04-15T20:52:38.832Z,8.50
2023-04-15T20:55:07.830Z,11.70
2023-04-15T20:57:36.167Z,8.10
2023-04-15T21:00:05.420Z,10.20
2023-04-15T21:02:33.951Z,11.80
2023-04-15T21:05:02.569Z,17.30
2023-04-15T21:07:31.096Z,14.50
2023-04-15T21:09:59.500Z,15.00
2023-04-15T21:12:27.928Z,19.10
2023-04-15T21:14:56.425Z,13.10
2023-04-15T21:17:25.626Z,15.60
2023-04-15T21:19:53.969Z,16.90
2023-04-15T21:22:22.289Z,13.30
2023-04-15T21:24:50.839Z,14.20
2023-04-15T21:27:19.329Z,12.90
2023-04-15T21:29:47.820Z,15.60
2023-04-15T21:32:16.227Z,11.70
2023-04-15T21:34:44.746Z,14.60
2023-04-15T21:37:13.297Z,21.80
2023-04-15T21:39:41.688Z,27.80
2023-04-15T21:42:10.084Z,14.00
2023-04-15T21:44:38.564Z,16.80
2023-04-15T21:47:07.222Z,13.50
2023-04-15T21:49:35.917Z,11.70
2023-04-15T21:52:04.799Z,15.20
2023-04-15T21:54:33.554Z,17.30
2023-04-15T21:57:02.063Z,13.20
2023-04-15T21:59:30.541Z,10.40
2023-04-15T22:01:59.131Z,15.90
2023-04-15T22:04:27.846Z,18.40
2023-04-15T22:06:59.828Z,18.20
2023-04-15T22:09:28.671Z,11.50
2023-04-15T22:11:59.500Z,13.90
2023-04-15T22:14:28.523Z,17.10
2023-04-15T22:16:57.305Z,16.80
2023-04-15T22:19:26.251Z,15.60
2023-04-15T22:21:54.712Z,10.30
2023-04-15T22:24:38.498Z,11.50
2023-04-15T22:27:09.042Z,11.50
2023-04-15T22:29:37.624Z,16.50
2023-04-15T22:32:06.345Z,9.60
2023-04-15T22:34:35.210Z,18.70
2023-04-15T22:37:03.994Z,46.40
2023-04-15T22:39:32.432Z,33.50
2023-04-15T22:42:02.240Z,25.80
2023-04-15T22:44:30.751Z,15.30
2023-04-15T22:46:59.212Z,17.30
2023-04-15T22:49:27.836Z,11.80
2023-04-15T22:51:56.602Z,13.70
2023-04-15T22:54:25.061Z,12.50
2023-04-15T22:56:53.506Z,13.40
2023-04-15T22:59:21.835Z,15.90
2023-04-15T23:01:50.497Z,17.10
2023-04-15T23:04:23.572Z,17.10
2023-04-15T23:06:54.682Z,12.80
2023-04-15T23:09:23.166Z,12.90
2023-04-15T23:11:51.710Z,14.90
2023-04-15T23:14:20.054Z,18.90
2023-04-15T23:16:48.513Z,14.50
2023-04-15T23:19:16.965Z,13.70
2023-04-15T23:21:45.801Z,12.10
2023-04-15T23:24:14.299Z,10.60
2023-04-15T23:26:43.010Z,11.90
2023-04-15T23:29:11.748Z,9.10
2023-04-15T23:31:41.773Z,10.20
2023-04-15T23:34:10.323Z,10.00
2023-04-15T23:36:38.628Z,11.30
2023-04-15T23:39:07.513Z,11.00
2023-04-15T23:41:36.781Z,12.10
2023-04-15T23:44:05.480Z,12.00
2023-04-15T23:46:33.991Z,13.10
2023-04-15T23:49:02.465Z,11.10
2023-04-15T23:51:30.921Z,8.10
2023-04-15T23:53:59.555Z,11.90
2023-04-15T23:56:27.999Z,10.80
2023-04-15T23:58:56.369Z,11.90
